Time;durP1;ratioP1;P1;durP2;ratioP2;P2;SDS_P1;SDS_P2;PMS_P1;PMS_P2;Temp;Humidity;BMP_temperature;BMP_pressure;BME280_temperature;BME280_humidity;BME280_pressure;Samples;Min_cycle;Max_cycle;Signal;HPM_P1;HPM_P2
2021/05/11 00:00:26;;;;;;;17.13;12.70;;;12.60;99.90;;;;;;5067187;28;20188;-76
2021/05/11 00:02:51;;;;;;;19.33;13.83;;;12.60;99.90;;;;;;5044587;28;20552;-76
2021/05/11 00:05:17;;;;;;;19.17;13.13;;;12.60;99.90;;;;;;5064116;28;20177;-76
2021/05/11 00:07:43;;;;;;;20.83;13.97;;;12.50;99.90;;;;;;5045926;28;20546;-76
2021/05/11 00:10:09;;;;;;;20.50;13.13;;;12.50;99.90;;;;;;5062297;28;20864;-76
2021/05/11 00:12:35;;;;;;;17.53;13.00;;;12.50;99.90;;;;;;5064950;28;20187;-76
2021/05/11 00:15:01;;;;;;;17.47;13.40;;;12.50;99.90;;;;;;5064656;28;20437;-76
2021/05/11 00:17:27;;;;;;;17.20;12.97;;;12.50;99.90;;;;;;5065748;28;20431;-76
2021/05/11 00:19:53;;;;;;;19.17;12.27;;;12.50;99.90;;;;;;5066604;28;20446;-76
2021/05/11 00:22:18;;;;;;;15.33;11.73;;;12.50;99.90;;;;;;5062598;28;20177;-76
2021/05/11 00:24:44;;;;;;;16.63;13.40;;;12.50;99.90;;;;;;5063391;28;20184;-76
2021/05/11 00:27:09;;;;;;;18.60;13.80;;;12.50;99.90;;;;;;5067936;28;20678;-76
2021/05/11 00:29:35;;;;;;;16.90;10.83;;;12.50;99.90;;;;;;5062731;28;20205;-76
2021/05/11 00:32:00;;;;;;;18.50;13.10;;;12.40;99.90;;;;;;5064983;28;20170;-76
2021/05/11 00:34:26;;;;;;;13.70;11.00;;;12.40;99.90;;;;;;5063066;28;20654;-76
2021/05/11 00:36:51;;;;;;;16.70;12.37;;;12.50;99.90;;;;;;5067854;28;20204;-76
2021/05/11 00:39:17;;;;;;;17.03;12.80;;;12.50;99.90;;;;;;5064297;28;20188;-76
2021/05/11 00:41:43;;;;;;;15.03;11.00;;;12.40;99.90;;;;;;5063860;28;20231;-76
2021/05/11 00:44:26;;;;;;;17.83;11.60;;;12.40;99.90;;;;;;5063635;28;20180;-76
2021/05/11 00:46:57;;;;;;;18.87;12.43;;;12.40;99.90;;;;;;5061581;28;20536;-76
2021/05/11 00:49:23;;;;;;;18.03;10.90;;;12.50;99.90;;;;;;5065636;28;20527;-76
2021/05/11 00:51:50;;;;;;;14.73;11.03;;;12.50;99.90;;;;;;5067515;28;20921;-76
2021/05/11 00:54:17;;;;;;;19.13;12.67;;;12.50;99.90;;;;;;5045424;28;20876;-76
2021/05/11 00:56:44;;;;;;;14.63;10.97;;;12.50;99.90;;;;;;5062759;28;20529;-76
2021/05/11 00:59:25;;;;;;;15.37;11.47;;;12.50;99.90;;;;;;5046232;28;20431;-76
2021/05/11 01:01:51;;;;;;;14.17;10.33;;;12.50;99.90;;;;;;5066411;28;20431;-76
2021/05/11 01:04:17;;;;;;;15.63;11.50;;;12.50;99.90;;;;;;5063281;28;20422;-76
2021/05/11 01:06:43;;;;;;;16.83;11.20;;;12.50;99.90;;;;;;5066173;28;21012;-76
2021/05/11 01:09:08;;;;;;;17.40;10.80;;;12.50;99.90;;;;;;5060224;28;20201;-76
2021/05/11 01:11:36;;;;;;;14.20;10.50;;;12.40;99.90;;;;;;5068030;28;20668;-75
2021/05/11 01:14:03;;;;;;;19.07;12.33;;;12.50;99.90;;;;;;5073667;28;20213;-76
2021/05/11 01:16:30;;;;;;;17.00;12.37;;;12.50;99.90;;;;;;5065678;28;20440;-76
2021/05/11 01:19:04;;;;;;;19.20;13.50;;;12.40;99.90;;;;;;5044422;28;20428;-76
2021/05/11 01:26:44;;;;;;;18.30;12.57;;;12.40;99.90;;;;;;5059881;28;20618;-76
2021/05/11 01:50:49;;;;;;;22.57;13.80;;;12.40;99.90;;;;;;5061579;28;20196;-76
2021/05/11 01:58:49;;;;;;;24.93;13.80;;;12.40;99.90;;;;;;5066934;28;20422;-76
2021/05/11 02:23:05;;;;;;;25.33;13.13;;;12.40;99.90;;;;;;5071635;28;20441;-76
2021/05/11 02:25:31;;;;;;;19.90;12.90;;;12.40;99.90;;;;;;5038895;28;20499;-76
2021/05/11 02:27:57;;;;;;;22.77;11.87;;;12.40;99.90;;;;;;5051726;28;20249;-76
2021/05/11 02:30:23;;;;;;;26.40;13.07;;;12.40;99.90;;;;;;5037924;28;20196;-76
2021/05/11 02:32:49;;;;;;;24.00;13.50;;;12.40;99.90;;;;;;5061019;28;20204;-76
2021/05/11 02:35:17;;;;;;;25.03;12.73;;;12.40;99.90;;;;;;5061789;28;20809;-76
2021/05/11 02:37:44;;;;;;;27.37;15.53;;;12.30;99.90;;;;;;5059437;28;20949;-76
2021/05/11 02:40:12;;;;;;;25.93;15.53;;;12.30;99.90;;;;;;5062247;28;20863;-76
2021/05/11 02:42:40;;;;;;;26.47;14.50;;;12.30;99.90;;;;;;5065933;28;20431;-76
2021/05/11 02:45:10;;;;;;;30.47;16.00;;;12.30;99.90;;;;;;5058829;28;20427;-76
2021/05/11 02:47:47;;;;;;;31.30;15.40;;;12.20;99.90;;;;;;5063568;28;20443;-76
2021/05/11 02:50:18;;;;;;;35.10;16.57;;;12.20;99.90;;;;;;5063245;28;20983;-76
2021/05/11 02:52:44;;;;;;;25.97;14.97;;;12.20;99.90;;;;;;5065708;28;20427;-76
2021/05/11 02:55:10;;;;;;;27.93;14.73;;;12.20;99.90;;;;;;5065662;28;20802;-76
2021/05/11 02:57:36;;;;;;;27.00;13.63;;;12.20;99.90;;;;;;5067277;28;20522;-76
2021/05/11 03:00:03;;;;;;;29.07;15.57;;;12.20;99.90;;;;;;5044618;28;20189;-76
2021/05/11 03:02:29;;;;;;;24.27;13.73;;;12.20;99.90;;;;;;5070529;28;20205;-76
2021/05/11 03:04:55;;;;;;;27.07;14.53;;;12.20;99.90;;;;;;5068527;28;20458;-77
2021/05/11 03:07:21;;;;;;;25.57;15.10;;;12.10;99.90;;;;;;5067981;28;20195;-76
2021/05/11 03:09:47;;;;;;;28.40;13.60;;;12.10;99.90;;;;;;5063475;28;20984;-76
2021/05/11 03:12:12;;;;;;;21.97;13.60;;;12.10;99.90;;;;;;5084476;23;20228;-75
2021/05/11 03:14:38;;;;;;;23.40;13.70;;;12.10;99.90;;;;;;5094940;28;20176;-75
2021/05/11 03:17:03;;;;;;;24.30;13.93;;;12.10;99.90;;;;;;5088645;28;20652;-75
2021/05/11 03:19:29;;;;;;;19.23;12.77;;;12.10;99.90;;;;;;5085120;28;20639;-75
2021/05/11 03:21:54;;;;;;;24.00;13.67;;;12.10;99.90;;;;;;5084833;28;20191;-75
2021/05/11 03:24:20;;;;;;;21.97;13.80;;;12.10;99.90;;;;;;5083909;28;20208;-75
2021/05/11 03:26:46;;;;;;;21.87;12.63;;;12.10;99.90;;;;;;5085404;28;20673;-75
2021/05/11 03:29:13;;;;;;;21.70;13.10;;;12.10;99.90;;;;;;5082385;28;20204;-75
2021/05/11 03:31:38;;;;;;;23.53;13.10;;;12.10;99.90;;;;;;5085580;28;20184;-75
2021/05/11 03:34:04;;;;;;;22.43;12.70;;;12.10;99.90;;;;;;5089552;28;20422;-75
2021/05/11 03:36:30;;;;;;;26.47;13.73;;;12.10;99.90;;;;;;5084901;28;20222;-75
2021/05/11 03:38:56;;;;;;;22.80;11.80;;;12.10;99.90;;;;;;5085528;28;20646;-75
2021/05/11 03:41:28;;;;;;;18.47;11.20;;;12.10;99.90;;;;;;5067219;28;20180;-75
2021/05/11 03:43:58;;;;;;;20.47;10.83;;;12.20;99.90;;;;;;5069289;28;20472;-75
2021/05/11 03:46:24;;;;;;;21.43;13.50;;;12.20;99.90;;;;;;5082517;28;20442;-75
2021/05/11 03:48:50;;;;;;;22.10;12.57;;;12.20;99.90;;;;;;5065982;28;21004;-75
2021/05/11 03:51:17;;;;;;;18.17;12.30;;;12.20;99.90;;;;;;5087047;28;20175;-75
2021/05/11 03:53:44;;;;;;;18.53;11.43;;;12.20;99.90;;;;;;5082167;28;20833;-75
2021/05/11 03:56:09;;;;;;;23.00;13.03;;;12.20;99.90;;;;;;5085985;28;20471;-75
2021/05/11 03:58:35;;;;;;;24.60;13.10;;;12.20;99.90;;;;;;5080624;28;20454;-75
2021/05/11 04:01:01;;;;;;;22.60;13.60;;;12.20;99.90;;;;;;5084758;28;20178;-75
2021/05/11 04:03:26;;;;;;;24.57;13.93;;;12.20;99.90;;;;;;5079391;28;20612;-75
2021/05/11 04:05:54;;;;;;;23.80;13.60;;;12.20;99.90;;;;;;5088178;28;20222;-75
2021/05/11 04:11:08;;;;;;;27.33;14.17;;;12.30;99.90;;;;;;5088386;28;20516;-75
2021/05/11 04:13:56;;;;;;;27.20;13.90;;;12.30;99.90;;;;;;5079311;28;20425;-75
2021/05/11 04:16:23;;;;;;;25.23;13.57;;;12.30;99.90;;;;;;5077701;28;20453;-75
2021/05/11 04:18:51;;;;;;;25.37;14.43;;;12.30;99.90;;;;;;5093406;28;20430;-75
2021/05/11 04:21:18;;;;;;;29.83;15.93;;;12.40;99.90;;;;;;5088794;28;20433;-75
2021/05/11 04:23:44;;;;;;;26.90;14.60;;;12.40;99.90;;;;;;5081694;28;20445;-74
2021/05/11 04:26:14;;;;;;;34.63;17.63;;;12.50;99.90;;;;;;5081358;28;20446;-75
2021/05/11 04:28:40;;;;;;;30.40;15.97;;;12.60;99.90;;;;;;5088749;28;20430;-75
2021/05/11 04:31:07;;;;;;;27.93;16.00;;;12.60;99.90;;;;;;5077798;28;20430;-75
2021/05/11 04:33:33;;;;;;;28.07;15.97;;;12.60;99.90;;;;;;5085546;28;20900;-75
2021/05/11 04:35:59;;;;;;;29.80;15.17;;;12.60;99.90;;;;;;5075489;28;20446;-75
2021/05/11 04:38:25;;;;;;;25.63;15.53;;;12.60;99.90;;;;;;5082297;28;20228;-75
2021/05/11 04:40:52;;;;;;;32.80;16.80;;;12.70;99.90;;;;;;5086891;28;20426;-75
2021/05/11 04:43:25;;;;;;;31.37;15.30;;;12.70;99.90;;;;;;5078963;28;20484;-75
2021/05/11 04:46:03;;;;;;;27.40;16.07;;;12.80;99.90;;;;;;5061850;28;20521;-76
2021/05/11 04:48:29;;;;;;;28.27;14.77;;;12.80;99.90;;;;;;5092769;28;20767;-76
2021/05/11 04:50:54;;;;;;;25.37;14.10;;;12.80;99.90;;;;;;5093749;28;20421;-76
2021/05/11 04:53:21;;;;;;;28.40;16.37;;;12.80;99.90;;;;;;5074188;28;20192;-76
2021/05/11 04:55:47;;;;;;;29.43;16.90;;;12.90;99.90;;;;;;5090088;28;20199;-75
2021/05/11 04:58:12;;;;;;;24.47;14.23;;;12.90;99.90;;;;;;5079748;28;20475;-76
2021/05/11 05:00:38;;;;;;;27.30;16.47;;;12.90;99.90;;;;;;5092430;28;20184;-75
2021/05/11 05:03:07;;;;;;;23.23;14.77;;;12.90;99.90;;;;;;5062136;28;20187;-75
2021/05/11 05:05:32;;;;;;;21.70;12.90;;;12.90;99.90;;;;;;5092642;28;20196;-75
2021/05/11 05:07:58;;;;;;;22.67;12.93;;;12.90;99.90;;;;;;5092218;28;20432;-79
2021/05/11 05:10:23;;;;;;;17.90;13.50;;;12.80;99.90;;;;;;5089313;22;20258;-73
2021/05/11 05:12:49;;;;;;;19.80;12.77;;;12.80;99.90;;;;;;5060924;28;20176;-73
2021/05/11 05:15:15;;;;;;;18.83;12.90;;;12.90;99.90;;;;;;5064864;28;20594;-72
2021/05/11 05:17:41;;;;;;;20.53;13.80;;;12.90;99.90;;;;;;5059573;28;20262;-73
2021/05/11 05:20:07;;;;;;;20.17;14.13;;;12.90;99.90;;;;;;5044659;28;20518;-73
2021/05/11 05:22:32;;;;;;;19.07;12.57;;;13.00;99.90;;;;;;5059298;28;20720;-73
2021/05/11 05:25:00;;;;;;;20.27;13.23;;;13.00;99.90;;;;;;5042880;28;20443;-73
2021/05/11 05:30:30;;;;;;;21.63;12.93;;;13.10;99.90;;;;;;4969560;28;20663;-73
2021/05/11 05:33:00;;;;;;;24.27;13.30;;;13.10;99.90;;;;;;4968232;28;20849;-74
2021/05/11 05:35:26;;;;;;;23.43;14.03;;;13.20;99.90;;;;;;4992444;28;20193;-75
2021/05/11 05:37:51;;;;;;;23.57;15.17;;;13.20;99.90;;;;;;5053344;28;20959;-75
2021/05/11 05:40:20;;;;;;;20.57;13.90;;;13.20;99.90;;;;;;5071486;28;21023;-76
2021/05/11 05:42:47;;;;;;;22.27;15.27;;;13.20;99.90;;;;;;5069807;28;20181;-74
2021/05/11 05:45:13;;;;;;;22.90;15.20;;;13.20;99.90;;;;;;5070339;28;20889;-74
2021/05/11 05:47:50;;;;;;;21.23;14.30;;;13.30;99.90;;;;;;5061929;28;20842;-74
2021/05/11 05:50:25;;;;;;;20.50;14.30;;;13.30;99.90;;;;;;5059968;28;20454;-75
2021/05/11 05:52:56;;;;;;;21.07;13.20;;;13.40;99.90;;;;;;5066794;28;20422;-74
2021/05/11 05:55:22;;;;;;;21.33;12.50;;;13.40;99.90;;;;;;5069505;28;20443;-74
2021/05/11 05:57:47;;;;;;;23.47;13.00;;;13.40;99.90;;;;;;5069628;28;20430;-74
2021/05/11 06:00:16;;;;;;;19.70;14.43;;;13.30;99.90;;;;;;5064558;28;20257;-73
2021/05/11 06:02:46;;;;;;;20.73;13.60;;;13.40;99.90;;;;;;5070863;28;20554;-73
2021/05/11 06:05:13;;;;;;;18.47;13.60;;;13.40;99.90;;;;;;5070284;28;20438;-74
2021/05/11 06:07:40;;;;;;;16.70;12.87;;;13.50;99.90;;;;;;5070185;28;20506;-73
2021/05/11 06:10:07;;;;;;;18.17;14.27;;;13.50;99.90;;;;;;5070382;28;20910;-73
2021/05/11 06:12:41;;;;;;;17.53;11.63;;;13.50;99.90;;;;;;5071251;28;20921;-73
2021/05/11 06:17:40;;;;;;;19.70;12.93;;;13.60;99.90;;;;;;5070293;28;20426;-73
2021/05/11 06:20:06;;;;;;;14.97;10.87;;;13.60;99.90;;;;;;5070146;28;20810;-73
2021/05/11 06:22:32;;;;;;;15.20;11.63;;;13.70;99.90;;;;;;5074359;28;20423;-73
2021/05/11 06:24:57;;;;;;;16.03;11.30;;;13.70;99.90;;;;;;5074270;28;20516;-73
2021/05/11 06:27:23;;;;;;;20.20;12.13;;;13.60;99.90;;;;;;5073158;28;20281;-74
2021/05/11 06:29:55;;;;;;;16.67;12.07;;;13.60;99.90;;;;;;5074445;28;20214;-74
2021/05/11 06:32:21;;;;;;;16.50;12.03;;;13.70;99.90;;;;;;5056254;28;20241;-73
2021/05/11 06:34:53;;;;;;;14.63;11.47;;;13.80;99.90;;;;;;5056317;28;20538;-73
2021/05/11 06:37:19;;;;;;;18.10;13.30;;;13.80;99.90;;;;;;5073086;28;20583;-73
2021/05/11 06:39:48;;;;;;;18.63;13.57;;;13.80;99.90;;;;;;5073660;28;20529;-74
2021/05/11 06:42:14;;;;;;;15.90;12.20;;;13.80;99.90;;;;;;5056824;28;20606;-75
2021/05/11 06:45:02;;;;;;;17.67;13.53;;;13.90;99.90;;;;;;5070953;28;20455;-75
2021/05/11 06:53:04;;;;;;;14.50;11.70;;;13.90;99.90;;;;;;5069279;28;20434;-74
2021/05/11 06:55:29;;;;;;;16.67;11.80;;;14.00;99.90;;;;;;5061850;28;20424;-74
2021/05/11 06:57:55;;;;;;;17.67;12.63;;;14.00;99.90;;;;;;5066557;28;20495;-74
2021/05/11 07:00:21;;;;;;;16.93;12.10;;;14.00;99.90;;;;;;5052556;28;20180;-74
2021/05/11 07:02:48;;;;;;;16.20;12.20;;;14.10;99.90;;;;;;5073960;28;20180;-74
2021/05/11 07:05:14;;;;;;;16.37;12.37;;;14.20;99.90;;;;;;5073764;28;20453;-74
2021/05/11 07:07:42;;;;;;;11.20;9.70;;;14.20;99.90;;;;;;5074452;28;20951;-74
2021/05/11 07:15:18;;;;;;;13.63;10.30;;;14.40;99.90;;;;;;5074318;28;21013;-75
2021/05/11 07:17:43;;;;;;;13.37;9.80;;;14.40;99.90;;;;;;5056053;28;20513;-75
2021/05/11 07:20:09;;;;;;;10.90;8.90;;;14.50;99.90;;;;;;5073359;28;20180;-75
2021/05/11 07:22:35;;;;;;;12.90;10.03;;;14.40;99.90;;;;;;5073911;28;20658;-73
2021/05/11 07:25:06;;;;;;;10.50;8.70;;;14.50;99.90;;;;;;5055211;28;20455;-74
2021/05/11 07:27:48;;;;;;;10.87;9.50;;;14.50;99.90;;;;;;5073896;28;20207;-74
2021/05/11 07:30:15;;;;;;;16.93;10.30;;;14.40;99.90;;;;;;5073220;28;20984;-74
2021/05/11 07:32:42;;;;;;;13.07;9.57;;;14.40;99.90;;;;;;5054654;28;20431;-73
2021/05/11 07:35:08;;;;;;;11.57;8.43;;;14.40;99.90;;;;;;5064365;28;20458;-75
2021/05/11 07:37:34;;;;;;;8.30;7.40;;;14.50;99.90;;;;;;5067531;28;20433;-75
2021/05/11 07:40:00;;;;;;;14.90;10.50;;;14.60;99.90;;;;;;5067187;28;20913;-75
2021/05/11 07:42:26;;;;;;;10.90;8.03;;;14.60;99.90;;;;;;5048449;28;20219;-75
2021/05/11 07:44:55;;;;;;;11.00;8.50;;;14.60;99.90;;;;;;5063554;28;20874;-75
2021/05/11 07:47:34;;;;;;;10.83;8.50;;;14.70;99.90;;;;;;5069702;28;20904;-75
2021/05/11 08:09:53;;;;;;;11.33;9.40;;;14.70;99.90;;;;;;5064445;28;20230;-76
2021/05/11 08:16:37;;;;;;;10.97;8.73;;;14.70;99.90;;;;;;5067074;28;20192;-76
2021/05/11 08:29:31;;;;;;;7.00;6.30;;;15.10;99.90;;;;;;5065605;28;20478;-75
2021/05/11 08:31:57;;;;;;;7.37;6.40;;;15.20;99.90;;;;;;5048179;28;20412;-76
2021/05/11 08:34:22;;;;;;;7.37;6.67;;;15.20;99.90;;;;;;5068918;28;20438;-75
2021/05/11 08:36:48;;;;;;;5.97;5.40;;;15.20;99.90;;;;;;5070745;28;20242;-76
2021/05/11 08:39:14;;;;;;;7.80;6.40;;;15.30;99.90;;;;;;5062393;28;20432;-75
2021/05/11 08:41:39;;;;;;;8.13;5.67;;;15.40;99.90;;;;;;5068314;28;20193;-76
2021/05/11 08:44:07;;;;;;;6.83;6.20;;;15.50;99.90;;;;;;5070924;28;20290;-75
2021/05/11 08:46:36;;;;;;;6.30;5.73;;;15.70;99.90;;;;;;5071844;28;20187;-75
2021/05/11 08:49:04;;;;;;;9.13;5.60;;;15.80;99.90;;;;;;5071383;28;20454;-75
2021/05/11 08:51:33;;;;;;;9.83;5.50;;;16.00;99.90;;;;;;5072114;28;20531;-76
2021/05/11 08:54:19;;;;;;;5.73;5.10;;;16.20;99.90;;;;;;5051245;28;20505;-75
2021/05/11 09:29:41;;;;;;;7.30;6.60;;;16.20;99.90;;;;;;5089255;28;20495;-75
2021/05/11 09:34:55;;;;;;;9.13;7.30;;;16.70;99.90;;;;;;5093229;28;20885;-75
2021/05/11 09:56:59;;;;;;;9.47;8.47;;;17.00;99.90;;;;;;5088836;28;20433;-75
2021/05/11 10:49:33;;;;;;;14.87;12.23;;;17.70;99.90;;;;;;5070890;28;20423;-75
2021/05/11 10:52:24;;;;;;;14.30;11.90;;;17.70;99.90;;;;;;5052701;28;20400;-75
2021/05/11 10:54:53;;;;;;;19.30;12.30;;;17.60;99.90;;;;;;5041009;28;20601;-76
2021/05/11 11:03:38;;;;;;;13.07;9.87;;;17.70;99.90;;;;;;5073590;28;20514;-75
2021/05/11 11:06:04;;;;;;;11.60;10.50;;;17.90;99.90;;;;;;4957767;28;20869;-74
2021/05/11 11:08:36;;;;;;;13.47;11.73;;;17.90;99.90;;;;;;5056105;28;20508;-73
2021/05/11 11:11:20;;;;;;;14.03;10.90;;;17.90;99.90;;;;;;5073527;28;20502;-73
2021/05/11 11:13:50;;;;;;;11.77;10.57;;;17.90;99.90;;;;;;5073273;28;20523;-73
2021/05/11 11:16:17;;;;;;;11.40;10.20;;;17.70;99.90;;;;;;5054509;28;20958;-73
2021/05/11 11:18:47;;;;;;;10.20;9.30;;;17.70;99.90;;;;;;5073480;28;20415;-73
2021/05/11 11:23:50;;;;;;;12.33;10.57;;;18.10;99.90;;;;;;5072532;28;20454;-73
2021/05/11 11:26:43;;;;;;;10.30;9.40;;;18.10;99.90;;;;;;5091477;28;20529;-73
2021/05/11 11:29:11;;;;;;;11.30;8.53;;;18.30;99.90;;;;;;5092885;28;20838;-73
2021/05/11 11:31:41;;;;;;;12.73;8.73;;;18.40;99.90;;;;;;5093202;28;20410;-73
2021/05/11 11:34:36;;;;;;;8.40;7.70;;;18.60;99.90;;;;;;5088999;28;20508;-73
2021/05/11 11:37:14;;;;;;;10.63;9.83;;;18.70;99.90;;;;;;5074358;28;20515;-73
2021/05/11 11:39:44;;;;;;;9.07;8.17;;;18.60;99.90;;;;;;5077463;28;20929;-73
2021/05/11 11:42:21;;;;;;;9.20;8.43;;;18.50;99.90;;;;;;5072863;28;20468;-73
2021/05/11 11:45:01;;;;;;;7.57;7.07;;;18.70;99.90;;;;;;5054874;28;20433;-73
2021/05/11 11:47:28;;;;;;;7.20;6.50;;;18.80;99.90;;;;;;5073002;28;20430;-73
2021/05/11 11:50:01;;;;;;;5.50;5.10;;;19.10;99.90;;;;;;5072902;28;20450;-73
2021/05/11 12:00:16;;;;;;;4.50;4.10;;;19.30;99.90;;;;;;5072152;28;20431;-77
2021/05/11 12:03:09;;;;;;;3.73;3.43;;;19.50;99.90;;;;;;5072949;28;20419;-77
2021/05/11 12:05:49;;;;;;;3.87;3.67;;;19.80;99.90;;;;;;5072903;28;20763;-77
2021/05/11 12:10:52;;;;;;;4.03;3.73;;;19.80;99.90;;;;;;5062309;28;20438;-78
2021/05/11 12:13:25;;;;;;;3.43;3.20;;;19.80;99.90;;;;;;5072492;28;20417;-77
2021/05/11 12:16:20;;;;;;;3.20;3.07;;;20.00;99.90;;;;;;5056914;28;20451;-77
2021/05/11 12:19:05;;;;;;;3.70;3.40;;;19.90;99.90;;;;;;5054407;28;20408;-78
2021/05/11 12:21:36;;;;;;;5.00;4.70;;;19.70;99.90;;;;;;5053303;28;20768;-78
2021/05/11 12:24:09;;;;;;;4.33;3.77;;;19.60;99.90;;;;;;5053255;28;20499;-77
2021/05/11 12:26:41;;;;;;;5.13;4.73;;;19.40;99.90;;;;;;5057733;28;20793;-78
2021/05/11 12:29:15;;;;;;;4.63;4.30;;;19.20;99.90;;;;;;5072852;28;20425;-78
2021/05/11 12:31:43;;;;;;;5.57;4.60;;;19.10;99.90;;;;;;5054741;28;20406;-78
2021/05/11 12:34:11;;;;;;;7.17;5.47;;;19.00;99.90;;;;;;5045831;28;20455;-77
2021/05/11 12:36:51;;;;;;;6.10;5.60;;;18.90;99.90;;;;;;5052549;28;20443;-77
2021/05/11 12:39:36;;;;;;;6.60;5.63;;;18.90;99.90;;;;;;5052570;28;20412;-77
2021/05/11 12:42:21;;;;;;;5.00;4.70;;;18.90;99.90;;;;;;5053634;28;20435;-77
2021/05/11 12:45:01;;;;;;;5.07;4.77;;;18.80;99.90;;;;;;5052738;28;20987;-77
2021/05/11 12:47:27;;;;;;;5.73;5.33;;;18.80;99.90;;;;;;5052378;28;20431;-78
2021/05/11 12:49:56;;;;;;;6.93;6.10;;;18.70;99.90;;;;;;5070438;28;20438;-78
2021/05/11 12:52:29;;;;;;;6.70;5.90;;;18.70;99.90;;;;;;5072466;28;20464;-78
2021/05/11 12:54:55;;;;;;;5.80;5.10;;;18.50;99.90;;;;;;5071950;28;20462;-78
2021/05/11 12:57:33;;;;;;;4.93;4.63;;;18.40;99.90;;;;;;5056481;28;20447;-78
2021/05/11 13:17:09;;;;;;;5.70;4.20;;;17.80;99.90;;;;;;4991487;28;20442;-78
2021/05/11 13:19:57;;;;;;;4.90;4.40;;;17.50;99.90;;;;;;4970959;28;20470;-78
2021/05/11 13:35:12;;;;;;;8.80;7.00;;;16.40;99.90;;;;;;5071927;28;20490;-77
2021/05/11 13:37:38;;;;;;;9.50;8.60;;;16.40;99.90;;;;;;5066064;28;20208;-78
2021/05/11 13:40:05;;;;;;;8.60;7.90;;;16.30;99.90;;;;;;5062568;28;20173;-79
2021/05/11 13:42:31;;;;;;;9.90;8.90;;;16.20;99.90;;;;;;5047728;28;20188;-78
2021/05/11 13:44:57;;;;;;;11.57;9.10;;;16.10;99.90;;;;;;5057940;28;20431;-78
2021/05/11 13:47:23;;;;;;;9.10;8.23;;;16.00;99.90;;;;;;5047351;28;20237;-78
2021/05/11 13:49:55;;;;;;;10.07;9.00;;;16.00;99.90;;;;;;5052681;28;20646;-78
2021/05/11 13:52:21;;;;;;;10.37;8.83;;;15.80;99.90;;;;;;5053457;28;20419;-78
2021/05/11 13:54:51;;;;;;;9.53;8.47;;;15.80;99.90;;;;;;5067499;28;20470;-78
2021/05/11 13:57:27;;;;;;;9.57;8.57;;;15.70;99.90;;;;;;5053612;28;20444;-78
2021/05/11 14:05:09;;;;;;;5.33;4.93;;;15.50;99.90;;;;;;5056911;28;20423;-77
2021/05/11 14:07:35;;;;;;;6.63;5.57;;;15.40;99.90;;;;;;5073000;28;20447;-77
2021/05/11 14:10:00;;;;;;;5.40;4.40;;;15.30;99.90;;;;;;5074878;28;20787;-77
2021/05/11 14:12:26;;;;;;;4.60;4.30;;;15.20;99.90;;;;;;5074812;28;20415;-77
2021/05/11 14:14:52;;;;;;;4.43;4.13;;;15.20;99.90;;;;;;5038268;28;20583;-77
2021/05/11 14:17:18;;;;;;;3.40;3.20;;;15.20;99.90;;;;;;5054387;28;20229;-77
2021/05/11 14:19:46;;;;;;;3.27;3.07;;;15.10;99.90;;;;;;5054838;28;20169;-77
2021/05/11 14:22:13;;;;;;;3.30;3.10;;;15.10;99.90;;;;;;5054690;28;20624;-77
2021/05/11 14:24:38;;;;;;;3.27;3.07;;;15.00;99.90;;;;;;5054802;28;20455;-77
2021/05/11 14:27:06;;;;;;;2.63;2.13;;;15.00;99.90;;;;;;5054594;28;20517;-77
2021/05/11 14:29:32;;;;;;;2.47;2.27;;;15.00;99.90;;;;;;5054903;28;20188;-76
2021/05/11 14:31:57;;;;;;;3.40;2.70;;;14.80;99.90;;;;;;5054545;28;20792;-76
2021/05/11 14:34:25;;;;;;;5.07;2.80;;;14.80;99.90;;;;;;5054095;28;20463;-76
2021/05/11 14:36:50;;;;;;;2.37;2.00;;;14.70;99.90;;;;;;5054674;28;20189;-76
2021/05/11 14:39:16;;;;;;;2.17;2.07;;;14.60;99.90;;;;;;5054174;28;20416;-76
2021/05/11 14:41:42;;;;;;;1.83;1.73;;;14.50;99.90;;;;;;5054379;28;20178;-76
2021/05/11 14:44:07;;;;;;;4.20;1.60;;;14.50;99.90;;;;;;5035960;28;20181;-76
2021/05/11 14:46:33;;;;;;;2.40;1.10;;;14.50;99.90;;;;;;5054178;28;20205;-76
2021/05/11 14:48:59;;;;;;;1.50;1.30;;;14.30;99.90;;;;;;5054298;28;20181;-76
2021/05/11 14:51:24;;;;;;;4.80;1.10;;;14.20;99.90;;;;;;5053937;28;20181;-76
2021/05/11 14:53:50;;;;;;;1.30;1.20;;;14.20;99.90;;;;;;5036516;28;20201;-76
2021/05/11 14:56:16;;;;;;;1.10;1.00;;;14.30;99.90;;;;;;5054314;28;20201;-76
2021/05/11 14:58:42;;;;;;;1.27;1.10;;;14.30;99.90;;;;;;5054170;28;20193;-76
2021/05/11 15:01:08;;;;;;;2.10;1.90;;;14.30;99.90;;;;;;5053624;28;20264;-76
2021/05/11 15:03:34;;;;;;;3.73;2.30;;;14.30;99.90;;;;;;5053454;28;20173;-76
2021/05/11 15:06:00;;;;;;;1.17;1.13;;;14.40;99.90;;;;;;5035636;28;20800;-75
2021/05/11 15:08:26;;;;;;;1.30;1.20;;;14.40;99.90;;;;;;5053806;28;20427;-76
2021/05/11 15:10:52;;;;;;;1.27;1.10;;;14.30;99.90;;;;;;5053592;28;20412;-76
2021/05/11 15:13:18;;;;;;;2.53;1.00;;;14.30;99.90;;;;;;5053019;28;20244;-76
2021/05/11 15:15:49;;;;;;;2.10;0.80;;;14.30;99.90;;;;;;5053596;28;20205;-76
2021/05/11 15:18:14;;;;;;;1.00;0.90;;;14.30;99.90;;;;;;5053083;28;20431;-75
2021/05/11 15:20:40;;;;;;;1.67;1.00;;;14.10;99.90;;;;;;5053232;28;20415;-76
2021/05/11 15:23:06;;;;;;;1.57;1.30;;;14.10;99.90;;;;;;5053482;28;20204;-76
2021/05/11 15:25:32;;;;;;;6.30;1.33;;;14.00;99.90;;;;;;5053569;28;20185;-76
2021/05/11 15:28:00;;;;;;;1.00;0.90;;;13.90;99.90;;;;;;5053289;28;20205;-75
2021/05/11 15:30:27;;;;;;;2.63;0.70;;;13.90;99.90;;;;;;5053230;28;20444;-75
2021/05/11 15:32:55;;;;;;;2.37;1.20;;;13.80;99.90;;;;;;5053450;28;20462;-76
2021/05/11 15:35:39;;;;;;;1.27;1.17;;;13.90;99.90;;;;;;5053490;28;20525;-75
2021/05/11 15:38:07;;;;;;;1.43;1.00;;;13.80;99.90;;;;;;5035720;28;20427;-76
2021/05/11 15:40:41;;;;;;;5.20;1.57;;;13.70;99.90;;;;;;5066488;28;20440;-76
2021/05/11 15:43:07;;;;;;;4.40;0.93;;;13.70;99.90;;;;;;5059764;28;20411;-76
2021/05/11 15:45:34;;;;;;;3.40;1.00;;;13.60;99.90;;;;;;5092136;28;20450;-75
2021/05/11 15:48:04;;;;;;;1.07;1.00;;;13.60;99.90;;;;;;5059699;28;20444;-76
2021/05/11 15:50:32;;;;;;;0.60;0.60;;;13.50;99.90;;;;;;5054890;28;20488;-75
2021/05/11 15:53:02;;;;;;;0.67;0.53;;;13.50;99.90;;;;;;5057805;28;20411;-75
2021/05/11 15:55:28;;;;;;;2.40;0.80;;;13.50;99.90;;;;;;5072907;28;20966;-75
2021/05/11 15:57:53;;;;;;;0.80;0.70;;;13.50;99.90;;;;;;5071622;28;20446;-75
2021/05/11 16:00:20;;;;;;;1.67;0.60;;;13.50;99.90;;;;;;5070146;28;20426;-75
2021/05/11 16:02:46;;;;;;;0.60;0.60;;;13.50;99.90;;;;;;5039355;28;20239;-76
2021/05/11 16:05:12;;;;;;;2.87;1.17;;;13.40;99.90;;;;;;5054388;28;20848;-75
2021/05/11 16:07:38;;;;;;;1.03;1.03;;;13.40;99.90;;;;;;5052594;28;20205;-75
2021/05/11 16:10:06;;;;;;;1.17;1.10;;;13.40;99.90;;;;;;5051901;28;20427;-76
2021/05/11 16:12:32;;;;;;;3.03;0.87;;;13.30;99.90;;;;;;5053418;28;20181;-75
2021/05/11 16:15:00;;;;;;;4.93;2.13;;;13.30;99.90;;;;;;5071480;28;21115;-75
2021/05/11 16:17:26;;;;;;;2.20;2.10;;;13.20;99.90;;;;;;5075884;28;20434;-75
2021/05/11 16:19:52;;;;;;;2.43;1.20;;;13.30;99.90;;;;;;5076133;28;20429;-75
2021/05/11 16:22:18;;;;;;;2.40;1.17;;;13.20;99.90;;;;;;5081108;28;20460;-75
2021/05/11 16:24:43;;;;;;;4.00;1.30;;;13.30;99.90;;;;;;5060655;28;20206;-75
2021/05/11 16:27:09;;;;;;;5.50;1.17;;;13.30;99.90;;;;;;5068450;28;20734;-75
2021/05/11 16:29:35;;;;;;;1.80;0.60;;;13.20;99.90;;;;;;5073975;28;20551;-73
2021/05/11 16:32:01;;;;;;;2.20;1.20;;;13.20;99.90;;;;;;5052938;28;20188;-75
2021/05/11 16:34:27;;;;;;;4.60;1.50;;;13.20;99.90;;;;;;5068965;28;20206;-74
2021/05/11 16:36:54;;;;;;;5.00;1.00;;;13.20;99.90;;;;;;5090849;28;20536;-74
2021/05/11 16:39:20;;;;;;;8.33;1.47;;;13.20;99.90;;;;;;5079024;28;20820;-75
2021/05/11 16:41:46;;;;;;;4.73;1.30;;;13.20;99.90;;;;;;5076997;28;20410;-74
2021/05/11 16:44:12;;;;;;;6.13;1.67;;;13.20;99.90;;;;;;5084370;28;20414;-74
2021/05/11 16:46:38;;;;;;;2.70;0.90;;;13.20;99.90;;;;;;5089605;28;20476;-73
2021/05/11 16:49:04;;;;;;;2.80;0.93;;;13.20;99.90;;;;;;5080255;28;20711;-74
2021/05/11 16:51:29;;;;;;;0.87;0.80;;;13.20;99.90;;;;;;5075208;28;20431;-74
2021/05/11 16:53:55;;;;;;;4.53;1.27;;;13.20;99.90;;;;;;5080108;28;20199;-74
2021/05/11 16:56:21;;;;;;;11.30;1.47;;;13.10;99.90;;;;;;5083536;28;20229;-74
2021/05/11 16:58:48;;;;;;;7.90;1.40;;;13.00;99.90;;;;;;5068056;28;20181;-74
2021/05/11 17:01:14;;;;;;;5.70;1.77;;;13.00;99.90;;;;;;5074521;28;20184;-74
2021/05/11 17:03:40;;;;;;;2.60;1.50;;;13.00;99.90;;;;;;5081556;28;20924;-74
2021/05/11 17:06:06;;;;;;;5.43;1.03;;;13.00;99.90;;;;;;5050747;28;20448;-74
2021/05/11 17:08:31;;;;;;;3.57;1.10;;;12.90;99.90;;;;;;5081180;28;20213;-74